SBOSBO GCI / EGJB
Speedbird OnlineSpeedbird Online GCI / EGJB

Guernsey Airport
02:13 6°C

Location Guernsey, Guernsey
Latitude: 49.435001373291016
Longitude: -2.6019699573516846
Web Wikipedia
Altitude 102 Meter / 336 Feet
Distance 301 KM / 187 Miles
from London.
Time Zone UTC 0 hours (Europe/Guernsey)
Codes IATA: GCI
ICAO: EGJB
Currency £1 equals GGP 1.00
Runways
RunwayLength (m)Surface
091583Asphalt
271583Asphalt
Radio
TypeDescriptionFrequency
APPAPP128.65
ATISATIS109.4
GNDGND121.8
TWRTWR119.95
Live ATC
METAR EGJB 270150Z 03011KT 350V070 9999 FEW018 BKN037 06/00 Q1030
TAF TAF EGJB 262258Z 2700/2709 02010KT 9999 FEW015 BKN038 TEMPO 2700/2705 02015G25KT PROB30 TEMPO 2700/2709 8000 SHRA
Weather As Of 27 Jan 2023 02:13
Description Broken clouds
Wind 20 km/h from North-East (30°)
Cloud Cover 75%
Precipitation Rain: none, Snow: none
Sunrise 07:49
Sunset 16:56



Support Speedbird Online

© 2017-2023 Speedbird Online